Time;durP1;ratioP1;P1;durP2;ratioP2;P2;SDS_P1;SDS_P2;PMS_P1;PMS_P2;Temp;Humidity;BMP_temperature;BMP_pressure;BME280_temperature;BME280_humidity;BME280_pressure;Samples;Min_cycle;Max_cycle;Signal;HPM_P1;HPM_P2
2023/12/06 00:00:07;;;;;;;8.77;7.10;;;;;;;;;;5006499;28;20202;-89
2023/12/06 00:02:34;;;;;;;8.03;5.87;;;;;;;;;;5035881;28;20361;-88
2023/12/06 00:05:04;;;;;;;7.47;5.30;;;;;;;;;;5036898;28;20633;-89
2023/12/06 00:07:31;;;;;;;5.63;4.50;;;;;;;;;;5047948;28;20259;-88
2023/12/06 00:10:02;;;;;;;8.23;6.20;;;;;;;;;;5036403;28;20590;-88
2023/12/06 00:12:30;;;;;;;6.47;5.63;;;;;;;;;;5035243;28;20246;-87
2023/12/06 00:14:57;;;;;;;8.57;7.00;;;;;;;;;;5041081;28;20206;-89
2023/12/06 00:17:24;;;;;;;8.80;6.73;;;;;;;;;;5041228;28;20234;-88
2023/12/06 00:19:50;;;;;;;7.50;5.67;;;;;;;;;;5028737;28;20211;-88
2023/12/06 00:22:17;;;;;;;9.37;6.60;;;;;;;;;;5016250;28;20268;-89
2023/12/06 00:24:44;;;;;;;6.33;5.73;;;;;;;;;;5039374;28;20198;-88
2023/12/06 00:27:13;;;;;;;11.37;8.97;;;;;;;;;;5034279;28;20274;-88
2023/12/06 00:29:40;;;;;;;8.60;6.97;;;;;;;;;;5038078;27;20210;-88
2023/12/06 00:32:07;;;;;;;8.57;7.57;;;;;;;;;;5045908;28;20205;-88
2023/12/06 00:34:34;;;;;;;13.70;10.27;;;;;;;;;;5038689;28;20215;-88
2023/12/06 00:37:04;;;;;;;10.20;8.00;;;;;;;;;;5045227;28;20559;-89
2023/12/06 00:39:31;;;;;;;8.03;6.17;;;;;;;;;;5038318;28;20681;-89
2023/12/06 00:41:59;;;;;;;7.70;6.67;;;;;;;;;;5008306;28;20274;-89
2023/12/06 00:44:27;;;;;;;7.27;5.53;;;;;;;;;;5014828;28;20752;-89
2023/12/06 00:46:54;;;;;;;8.10;6.57;;;;;;;;;;5048551;28;20202;-88
2023/12/06 00:49:21;;;;;;;8.87;7.63;;;;;;;;;;5049085;27;20206;-88
2023/12/06 00:51:48;;;;;;;7.97;6.10;;;;;;;;;;5025686;28;20218;-87
2023/12/06 00:54:15;;;;;;;11.47;9.20;;;;;;;;;;5041188;28;20206;-87
2023/12/06 00:56:42;;;;;;;6.80;6.10;;;;;;;;;;5042683;27;20214;-89
2023/12/06 00:59:09;;;;;;;8.07;7.17;;;;;;;;;;5041000;28;20752;-88
2023/12/06 01:01:37;;;;;;;7.23;5.43;;;;;;;;;;5042331;28;20253;-89
2023/12/06 01:04:04;;;;;;;6.60;5.67;;;;;;;;;;5041230;28;20214;-88
2023/12/06 01:06:31;;;;;;;7.43;5.43;;;;;;;;;;5035928;28;20206;-88
2023/12/06 01:08:58;;;;;;;8.37;6.10;;;;;;;;;;5046796;28;20271;-88
2023/12/06 01:11:25;;;;;;;6.67;6.03;;;;;;;;;;5048269;28;20240;-88
2023/12/06 01:13:54;;;;;;;7.30;5.60;;;;;;;;;;5015208;28;20639;-88
2023/12/06 01:16:21;;;;;;;6.50;5.00;;;;;;;;;;5016012;28;20221;-89
2023/12/06 01:18:48;;;;;;;4.97;4.47;;;;;;;;;;5042117;28;20209;-88
2023/12/06 01:21:15;;;;;;;6.13;4.60;;;;;;;;;;5047552;28;20210;-89
2023/12/06 01:23:42;;;;;;;5.33;3.93;;;;;;;;;;5047964;27;20222;-88
2023/12/06 01:26:10;;;;;;;4.70;4.20;;;;;;;;;;5035129;28;20672;-90
2023/12/06 01:28:37;;;;;;;5.27;4.40;;;;;;;;;;5033936;27;20215;-88
2023/12/06 01:31:04;;;;;;;5.53;4.30;;;;;;;;;;5032677;28;20689;-88
2023/12/06 01:33:31;;;;;;;6.07;5.20;;;;;;;;;;5019393;28;20210;-89
2023/12/06 01:35:59;;;;;;;5.93;4.53;;;;;;;;;;5037128;28;20198;-88
2023/12/06 01:38:26;;;;;;;5.53;4.63;;;;;;;;;;5048200;28;20225;-89
2023/12/06 01:40:53;;;;;;;9.57;5.33;;;;;;;;;;5039696;28;20206;-88
2023/12/06 01:43:20;;;;;;;11.73;9.60;;;;;;;;;;5048870;28;20230;-89
2023/12/06 01:45:47;;;;;;;17.37;12.10;;;;;;;;;;5040478;28;20206;-88
2023/12/06 01:48:15;;;;;;;11.27;8.30;;;;;;;;;;5019925;28;20219;-88
2023/12/06 01:50:42;;;;;;;10.43;7.00;;;;;;;;;;5030252;28;20198;-88
2023/12/06 01:53:11;;;;;;;8.00;5.40;;;;;;;;;;5051028;28;20202;-88
2023/12/06 01:55:38;;;;;;;5.60;4.53;;;;;;;;;;5051940;28;20210;-89
2023/12/06 01:58:05;;;;;;;4.93;3.87;;;;;;;;;;5033463;28;20222;-89
2023/12/06 02:00:32;;;;;;;5.10;4.43;;;;;;;;;;5041753;28;20206;-89
2023/12/06 02:02:59;;;;;;;6.67;4.57;;;;;;;;;;5046819;28;20226;-89
2023/12/06 02:05:26;;;;;;;6.40;5.60;;;;;;;;;;5042344;28;20224;-88
2023/12/06 02:07:53;;;;;;;8.57;5.97;;;;;;;;;;5033878;28;20210;-89
2023/12/06 02:10:22;;;;;;;5.63;4.70;;;;;;;;;;5040081;28;20207;-88
2023/12/06 02:12:49;;;;;;;6.27;5.00;;;;;;;;;;5040193;28;20208;-89
2023/12/06 02:15:16;;;;;;;8.17;5.17;;;;;;;;;;5034402;28;20202;-88
2023/12/06 02:17:44;;;;;;;7.43;4.57;;;;;;;;;;5036487;28;20603;-89
2023/12/06 02:20:12;;;;;;;5.17;4.67;;;;;;;;;;5034276;28;20214;-89
2023/12/06 02:22:39;;;;;;;6.10;5.50;;;;;;;;;;5033317;28;20576;-89
2023/12/06 02:25:12;;;;;;;5.37;4.23;;;;;;;;;;5038899;28;20213;-88
2023/12/06 02:27:41;;;;;;;5.30;4.27;;;;;;;;;;5043477;28;20203;-88
2023/12/06 02:30:10;;;;;;;5.07;4.43;;;;;;;;;;5044514;28;20668;-87
2023/12/06 02:32:37;;;;;;;5.80;4.97;;;;;;;;;;5031550;28;20271;-89
2023/12/06 02:35:09;;;;;;;6.57;5.03;;;;;;;;;;5044465;28;20221;-89
2023/12/06 02:37:36;;;;;;;7.73;3.90;;;;;;;;;;5051020;27;20202;-88
2023/12/06 02:40:06;;;;;;;6.20;4.57;;;;;;;;;;5002432;28;20258;-88
2023/12/06 02:42:34;;;;;;;5.23;4.73;;;;;;;;;;5049942;28;20230;-88
2023/12/06 02:45:02;;;;;;;7.33;5.90;;;;;;;;;;5048285;28;20222;-89
2023/12/06 02:47:29;;;;;;;5.57;5.00;;;;;;;;;;5020803;28;20222;-88
2023/12/06 02:49:56;;;;;;;4.97;4.47;;;;;;;;;;5027376;28;20206;-88
2023/12/06 02:52:23;;;;;;;5.83;5.20;;;;;;;;;;5041000;28;20209;-89
2023/12/06 02:54:50;;;;;;;6.83;4.73;;;;;;;;;;5050693;28;20198;-88
2023/12/06 02:57:17;;;;;;;7.33;4.70;;;;;;;;;;5040654;28;20214;-88
2023/12/06 02:59:45;;;;;;;4.97;4.47;;;;;;;;;;5042593;28;20593;-88
2023/12/06 03:02:12;;;;;;;6.60;5.37;;;;;;;;;;5041169;28;20222;-88
2023/12/06 03:04:39;;;;;;;6.77;4.80;;;;;;;;;;5049267;28;20214;-89
2023/12/06 03:07:06;;;;;;;10.90;7.20;;;;;;;;;;5039582;28;20211;-89
2023/12/06 03:09:32;;;;;;;13.93;9.07;;;;;;;;;;5047786;28;20206;-89
2023/12/06 03:11:59;;;;;;;19.90;17.90;;;;;;;;;;5039920;28;20245;-88
2023/12/06 03:14:26;;;;;;;9.97;8.07;;;;;;;;;;5046963;28;20198;-89
2023/12/06 03:16:55;;;;;;;11.33;10.13;;;;;;;;;;5038299;28;20199;-89
2023/12/06 03:19:22;;;;;;;9.90;6.33;;;;;;;;;;5029434;28;20723;-89
2023/12/06 03:21:48;;;;;;;7.27;6.00;;;;;;;;;;5029328;28;20292;-88
2023/12/06 03:24:15;;;;;;;7.53;6.33;;;;;;;;;;5037744;28;20227;-89
2023/12/06 03:26:43;;;;;;;8.87;6.97;;;;;;;;;;5032795;28;20308;-88
2023/12/06 03:29:10;;;;;;;9.00;6.80;;;;;;;;;;5043634;28;20203;-88
2023/12/06 03:31:37;;;;;;;17.37;11.73;;;;;;;;;;5042486;28;20206;-88
2023/12/06 03:34:05;;;;;;;19.53;11.63;;;;;;;;;;5048881;28;20277;-89
2023/12/06 03:36:32;;;;;;;12.20;7.70;;;;;;;;;;5050437;27;20209;-88
2023/12/06 03:38:59;;;;;;;9.33;6.30;;;;;;;;;;5043854;27;20685;-88
2023/12/06 03:41:26;;;;;;;7.43;6.57;;;;;;;;;;5041897;28;20629;-89
2023/12/06 03:43:53;;;;;;;8.63;6.73;;;;;;;;;;5043795;28;20226;-89
2023/12/06 03:46:20;;;;;;;7.63;6.63;;;;;;;;;;5030269;28;20701;-89
2023/12/06 03:48:47;;;;;;;8.37;6.83;;;;;;;;;;5049467;28;20206;-88
2023/12/06 03:51:15;;;;;;;8.33;6.63;;;;;;;;;;5048348;28;20258;-88
2023/12/06 03:53:43;;;;;;;10.87;7.70;;;;;;;;;;5050335;28;20603;-88
2023/12/06 03:56:10;;;;;;;11.33;7.70;;;;;;;;;;5036680;28;20234;-88
2023/12/06 03:58:39;;;;;;;10.57;8.87;;;;;;;;;;5040819;27;20210;-88
2023/12/06 04:01:07;;;;;;;13.20;10.43;;;;;;;;;;5042709;28;20214;-88
2023/12/06 04:03:34;;;;;;;10.90;8.90;;;;;;;;;;5041253;28;20236;-88
2023/12/06 04:06:02;;;;;;;10.00;8.33;;;;;;;;;;5048315;28;20206;-88
2023/12/06 04:08:31;;;;;;;10.17;7.80;;;;;;;;;;5049467;28;20210;-87
2023/12/06 04:10:58;;;;;;;9.73;7.73;;;;;;;;;;5018304;28;20292;-88
2023/12/06 04:13:25;;;;;;;13.97;8.10;;;;;;;;;;5039572;27;20592;-88
2023/12/06 04:15:53;;;;;;;67.83;40.63;;;;;;;;;;5045157;28;20733;-88
2023/12/06 04:18:20;;;;;;;52.57;35.97;;;;;;;;;;5049422;28;20214;-87
2023/12/06 04:20:47;;;;;;;15.43;12.73;;;;;;;;;;5034329;28;20213;-88
2023/12/06 04:23:15;;;;;;;11.70;8.60;;;;;;;;;;5049642;28;20260;-88
2023/12/06 04:25:43;;;;;;;22.07;16.47;;;;;;;;;;5044109;27;20221;-88
2023/12/06 04:28:11;;;;;;;14.30;10.23;;;;;;;;;;5029486;28;20237;-93
2023/12/06 04:30:38;;;;;;;14.80;10.90;;;;;;;;;;5097010;28;20206;-88
2023/12/06 04:33:06;;;;;;;18.00;14.37;;;;;;;;;;5030209;28;20202;-89
2023/12/06 04:35:33;;;;;;;29.77;26.53;;;;;;;;;;5031627;28;20780;-91
2023/12/06 04:38:08;;;;;;;26.93;24.23;;;;;;;;;;5045805;28;20202;-91
2023/12/06 04:40:35;;;;;;;18.97;16.97;;;;;;;;;;5051512;28;20609;-91
2023/12/06 04:43:06;;;;;;;131.23;54.83;;;;;;;;;;5014699;28;20222;-89
2023/12/06 04:45:33;;;;;;;210.37;109.37;;;;;;;;;;5041601;28;20217;-89
2023/12/06 04:48:01;;;;;;;120.90;73.13;;;;;;;;;;5031918;28;20259;-90
2023/12/06 04:50:28;;;;;;;61.73;41.10;;;;;;;;;;5023183;28;20195;-90
2023/12/06 04:52:56;;;;;;;46.70;35.77;;;;;;;;;;5005989;28;20207;-90
2023/12/06 04:55:24;;;;;;;28.83;21.27;;;;;;;;;;5017585;28;20745;-90
2023/12/06 04:57:51;;;;;;;20.03;17.10;;;;;;;;;;5017202;28;20199;-89
2023/12/06 05:00:21;;;;;;;10.43;8.87;;;;;;;;;;5029267;28;20665;-90
2023/12/06 05:02:49;;;;;;;15.23;8.83;;;;;;;;;;5030132;28;20230;-88
2023/12/06 05:05:16;;;;;;;12.03;8.50;;;;;;;;;;5015287;28;20215;-88
2023/12/06 05:07:44;;;;;;;13.57;7.53;;;;;;;;;;5024421;28;20645;-89
2023/12/06 05:10:11;;;;;;;16.60;12.37;;;;;;;;;;5030933;28;20221;-89
2023/12/06 05:12:38;;;;;;;24.80;16.80;;;;;;;;;;5040009;28;20213;-89
2023/12/06 05:15:07;;;;;;;27.60;17.90;;;;;;;;;;5021105;28;20214;-89
2023/12/06 05:17:35;;;;;;;12.33;9.40;;;;;;;;;;5043325;28;20242;-88
2023/12/06 05:20:02;;;;;;;9.97;7.53;;;;;;;;;;5034261;28;20207;-90
2023/12/06 05:22:29;;;;;;;10.03;7.97;;;;;;;;;;5036923;28;20213;-88
2023/12/06 05:24:56;;;;;;;64.63;10.27;;;;;;;;;;5050188;28;20232;-86
2023/12/06 05:27:23;;;;;;;41.90;8.37;;;;;;;;;;5039828;28;20204;-91
2023/12/06 05:29:50;;;;;;;27.13;7.17;;;;;;;;;;5042413;28;20206;-89
2023/12/06 05:32:17;;;;;;;14.70;7.23;;;;;;;;;;5036129;28;20225;-91
2023/12/06 05:34:46;;;;;;;34.40;9.07;;;;;;;;;;5038550;28;20587;-90
2023/12/06 05:37:13;;;;;;;29.90;10.07;;;;;;;;;;5045172;28;20719;-89
2023/12/06 05:39:40;;;;;;;16.80;8.33;;;;;;;;;;5045391;28;20198;-89
2023/12/06 05:42:07;;;;;;;32.80;16.10;;;;;;;;;;5021864;28;20266;-89
2023/12/06 05:44:34;;;;;;;30.63;15.90;;;;;;;;;;5039253;28;20299;-89
2023/12/06 05:47:04;;;;;;;17.10;10.97;;;;;;;;;;5052261;28;20206;-89
2023/12/06 05:49:31;;;;;;;15.60;11.00;;;;;;;;;;5124479;27;20214;-89
2023/12/06 05:51:59;;;;;;;10.27;8.63;;;;;;;;;;5051819;27;20603;-89
2023/12/06 05:54:26;;;;;;;10.87;8.03;;;;;;;;;;5052193;28;20198;-89
2023/12/06 05:56:53;;;;;;;10.53;8.37;;;;;;;;;;5043670;28;20203;-89
2023/12/06 05:59:20;;;;;;;13.30;9.23;;;;;;;;;;5045096;28;20214;-89
2023/12/06 06:01:47;;;;;;;11.33;9.10;;;;;;;;;;5032167;28;20213;-89
2023/12/06 06:04:14;;;;;;;15.17;9.53;;;;;;;;;;5033714;28;20313;-89
2023/12/06 06:06:41;;;;;;;10.37;7.70;;;;;;;;;;5042851;28;20207;-89
2023/12/06 06:09:09;;;;;;;42.07;21.77;;;;;;;;;;5045764;28;20206;-89
2023/12/06 06:11:36;;;;;;;80.30;42.30;;;;;;;;;;5044093;28;20669;-89
2023/12/06 06:14:03;;;;;;;20.10;14.03;;;;;;;;;;5046274;28;20202;-89
2023/12/06 06:16:30;;;;;;;26.30;17.13;;;;;;;;;;5043278;28;20206;-89
2023/12/06 06:18:57;;;;;;;27.73;15.37;;;;;;;;;;5046319;28;20214;-89
2023/12/06 06:21:23;;;;;;;13.10;11.10;;;;;;;;;;5051580;28;20206;-89
2023/12/06 06:23:50;;;;;;;10.93;8.40;;;;;;;;;;5050509;28;20229;-89
2023/12/06 06:26:18;;;;;;;7.37;6.30;;;;;;;;;;5043086;28;20207;-88
2023/12/06 06:28:45;;;;;;;8.70;5.80;;;;;;;;;;5044907;28;20640;-88
2023/12/06 06:31:13;;;;;;;6.37;5.37;;;;;;;;;;5040773;28;20213;-89
2023/12/06 06:33:40;;;;;;;10.63;6.97;;;;;;;;;;5048441;28;20276;-89
2023/12/06 06:36:07;;;;;;;8.97;6.70;;;;;;;;;;5041234;28;20241;-89
2023/12/06 06:38:35;;;;;;;10.90;7.40;;;;;;;;;;5048012;27;20202;-89
2023/12/06 06:41:02;;;;;;;11.60;9.57;;;;;;;;;;5042057;28;20237;-89
2023/12/06 06:43:30;;;;;;;9.40;7.73;;;;;;;;;;5037847;28;20699;-89
2023/12/06 06:45:57;;;;;;;7.20;6.40;;;;;;;;;;5040509;28;20241;-90
2023/12/06 06:48:24;;;;;;;9.57;6.10;;;;;;;;;;5031407;28;20213;-90
2023/12/06 06:50:52;;;;;;;7.67;5.97;;;;;;;;;;5042304;28;20206;-90
2023/12/06 06:53:19;;;;;;;8.17;6.60;;;;;;;;;;5046258;28;20207;-89
2023/12/06 06:55:46;;;;;;;7.57;6.40;;;;;;;;;;5042212;28;20236;-90
2023/12/06 06:58:13;;;;;;;8.33;7.37;;;;;;;;;;5037841;28;20214;-89
2023/12/06 07:00:42;;;;;;;8.47;5.93;;;;;;;;;;5039679;28;20215;-89
2023/12/06 07:03:08;;;;;;;10.07;7.70;;;;;;;;;;5031230;28;20207;-90
2023/12/06 07:05:35;;;;;;;13.50;8.13;;;;;;;;;;5031411;28;20202;-89
2023/12/06 07:08:02;;;;;;;9.70;7.40;;;;;;;;;;5049858;28;20214;-90
2023/12/06 07:10:29;;;;;;;9.90;7.73;;;;;;;;;;5050094;28;20248;-90
2023/12/06 07:12:56;;;;;;;7.37;6.30;;;;;;;;;;5032332;28;20214;-89
2023/12/06 07:15:25;;;;;;;9.40;6.73;;;;;;;;;;5042683;28;20213;-89
2023/12/06 07:17:53;;;;;;;14.60;9.53;;;;;;;;;;5037223;28;20248;-89
2023/12/06 07:20:21;;;;;;;16.53;10.40;;;;;;;;;;5050922;28;20591;-89
2023/12/06 07:22:49;;;;;;;12.73;10.93;;;;;;;;;;5037315;27;20591;-89
2023/12/06 07:25:16;;;;;;;11.70;9.70;;;;;;;;;;5037698;28;20239;-89
2023/12/06 07:27:44;;;;;;;14.07;10.67;;;;;;;;;;5036331;28;20209;-89
2023/12/06 07:30:15;;;;;;;18.20;10.37;;;;;;;;;;5037573;28;20305;-89
2023/12/06 07:32:42;;;;;;;16.93;8.60;;;;;;;;;;5050643;28;20235;-89
2023/12/06 07:35:10;;;;;;;10.60;8.23;;;;;;;;;;5049487;28;20214;-90
2023/12/06 07:37:37;;;;;;;12.53;7.20;;;;;;;;;;5041652;28;20214;-89
2023/12/06 07:40:07;;;;;;;13.13;7.20;;;;;;;;;;5045817;27;20221;-89
2023/12/06 07:42:34;;;;;;;11.07;7.30;;;;;;;;;;5041345;28;20214;-90
2023/12/06 07:45:01;;;;;;;13.67;8.53;;;;;;;;;;5032455;28;20230;-89
2023/12/06 07:47:28;;;;;;;11.87;8.03;;;;;;;;;;5050618;27;20205;-89
2023/12/06 07:49:55;;;;;;;20.07;8.67;;;;;;;;;;5047244;28;20593;-90
2023/12/06 07:52:23;;;;;;;19.87;12.50;;;;;;;;;;5040066;28;20205;-89
2023/12/06 07:54:51;;;;;;;11.17;9.53;;;;;;;;;;5036480;28;20679;-90
2023/12/06 07:57:18;;;;;;;14.27;10.00;;;;;;;;;;5040077;28;20680;-90
2023/12/06 07:59:47;;;;;;;16.03;12.93;;;;;;;;;;5030218;28;20246;-89
2023/12/06 08:02:18;;;;;;;33.60;24.50;;;;;;;;;;5040867;28;20218;-90
2023/12/06 08:04:44;;;;;;;30.90;21.93;;;;;;;;;;5036697;28;20233;-89
2023/12/06 08:07:11;;;;;;;43.47;29.83;;;;;;;;;;5049988;28;20217;-89
2023/12/06 08:09:40;;;;;;;17.70;12.83;;;;;;;;;;5044838;28;20206;-89
2023/12/06 08:12:08;;;;;;;10.17;9.07;;;;;;;;;;5042165;28;20257;-90
2023/12/06 08:14:35;;;;;;;11.57;8.90;;;;;;;;;;5049718;28;20664;-89
2023/12/06 08:17:02;;;;;;;13.80;11.17;;;;;;;;;;5037443;28;20234;-90
2023/12/06 08:19:28;;;;;;;15.63;11.17;;;;;;;;;;5048822;28;20221;-90
2023/12/06 08:21:55;;;;;;;11.07;8.80;;;;;;;;;;5049591;28;20206;-90
2023/12/06 08:24:22;;;;;;;11.47;8.90;;;;;;;;;;5049082;28;20297;-89
2023/12/06 08:26:51;;;;;;;12.73;9.37;;;;;;;;;;5049984;27;20202;-91
2023/12/06 08:29:17;;;;;;;12.00;8.40;;;;;;;;;;5036159;28;20198;-90
2023/12/06 08:31:44;;;;;;;10.47;7.17;;;;;;;;;;5036640;27;20222;-90
2023/12/06 08:34:11;;;;;;;10.30;7.60;;;;;;;;;;5049875;28;20198;-90
2023/12/06 08:36:38;;;;;;;10.50;7.67;;;;;;;;;;5035929;28;20210;-90
2023/12/06 08:39:05;;;;;;;9.73;7.37;;;;;;;;;;5042404;27;20238;-89
2023/12/06 08:41:32;;;;;;;9.27;6.83;;;;;;;;;;5043333;28;20228;-90
2023/12/06 08:44:01;;;;;;;14.13;9.20;;;;;;;;;;5037327;28;20648;-90
2023/12/06 08:46:28;;;;;;;14.10;10.50;;;;;;;;;;5034153;28;20207;-89
2023/12/06 08:48:55;;;;;;;12.97;9.00;;;;;;;;;;5029746;28;20715;-90
2023/12/06 08:51:21;;;;;;;11.13;7.67;;;;;;;;;;5044480;28;20241;-90
2023/12/06 08:53:48;;;;;;;11.60;8.10;;;;;;;;;;5049462;28;20216;-90
2023/12/06 08:56:15;;;;;;;10.63;6.93;;;;;;;;;;5036267;28;20206;-89
2023/12/06 08:58:42;;;;;;;13.30;7.97;;;;;;;;;;5040921;28;20207;-90
2023/12/06 09:01:10;;;;;;;14.00;8.83;;;;;;;;;;5030542;28;20279;-90
2023/12/06 09:03:37;;;;;;;10.80;7.90;;;;;;;;;;5048982;28;20205;-90
2023/12/06 09:06:05;;;;;;;11.37;7.80;;;;;;;;;;5033220;28;20230;-90
2023/12/06 09:08:31;;;;;;;11.50;8.40;;;;;;;;;;5038793;28;20216;-90
2023/12/06 09:10:58;;;;;;;9.97;8.60;;;;;;;;;;5035782;28;20238;-90
2023/12/06 09:13:25;;;;;;;12.40;8.90;;;;;;;;;;5039871;28;20700;-90
2023/12/06 09:15:53;;;;;;;11.50;7.63;;;;;;;;;;5045586;28;20568;-90
2023/12/06 09:18:21;;;;;;;12.73;10.00;;;;;;;;;;5049052;28;20210;-90
2023/12/06 09:20:48;;;;;;;12.57;10.07;;;;;;;;;;5048886;28;20210;-90
2023/12/06 09:23:15;;;;;;;12.77;10.37;;;;;;;;;;5039061;28;20209;-90
2023/12/06 09:25:42;;;;;;;9.30;8.17;;;;;;;;;;5046238;28;20259;-90
2023/12/06 09:28:11;;;;;;;9.33;7.33;;;;;;;;;;5038437;28;20207;-90
2023/12/06 09:30:38;;;;;;;11.93;9.17;;;;;;;;;;5042691;28;20221;-90
2023/12/06 09:33:04;;;;;;;13.30;8.90;;;;;;;;;;5028931;28;20215;-89
2023/12/06 09:35:33;;;;;;;10.87;8.03;;;;;;;;;;5042549;28;20214;-90
2023/12/06 09:38:00;;;;;;;10.70;7.47;;;;;;;;;;5017200;28;20298;-90
2023/12/06 09:40:28;;;;;;;8.27;7.30;;;;;;;;;;5022147;28;20208;-89
2023/12/06 09:42:59;;;;;;;12.17;8.50;;;;;;;;;;5009408;28;20204;-91
2023/12/06 09:45:26;;;;;;;11.33;8.00;;;;;;;;;;5034584;28;20241;-89
2023/12/06 09:47:54;;;;;;;12.60;10.07;;;;;;;;;;5048408;28;20221;-90
2023/12/06 09:50:21;;;;;;;8.90;7.83;;;;;;;;;;5022810;28;20688;-90
2023/12/06 09:52:52;;;;;;;14.97;12.90;;;;;;;;;;5048772;28;20202;-90
2023/12/06 09:55:20;;;;;;;12.53;8.67;;;;;;;;;;5041220;28;20630;-90
2023/12/06 09:57:48;;;;;;;7.87;7.00;;;;;;;;;;5043604;28;20210;-90
2023/12/06 10:00:15;;;;;;;5.27;4.77;;;;;;;;;;5051556;28;20248;-90
2023/12/06 10:02:50;;;;;;;6.37;5.07;;;;;;;;;;5038676;28;20210;-89
2023/12/06 10:05:17;;;;;;;3.37;3.07;;;;;;;;;;5051978;28;20225;-90
2023/12/06 10:07:44;;;;;;;4.20;3.07;;;;;;;;;;5051479;28;20210;-89
2023/12/06 10:10:15;;;;;;;3.73;3.40;;;;;;;;;;5051002;28;20225;-89
2023/12/06 10:12:49;;;;;;;5.50;4.93;;;;;;;;;;5038772;28;20206;-90
2023/12/06 10:15:16;;;;;;;3.53;3.10;;;;;;;;;;5040854;28;20199;-90
2023/12/06 10:17:43;;;;;;;3.50;3.20;;;;;;;;;;5049650;28;20216;-90
2023/12/06 10:20:10;;;;;;;5.93;3.37;;;;;;;;;;5052004;28;20233;-90
2023/12/06 10:22:37;;;;;;;4.30;3.37;;;;;;;;;;5033219;28;20195;-89
2023/12/06 10:25:06;;;;;;;8.13;4.50;;;;;;;;;;5031599;28;20659;-89
2023/12/06 10:27:35;;;;;;;4.03;3.37;;;;;;;;;;5050966;28;20300;-90
2023/12/06 10:30:03;;;;;;;21.77;18.53;;;;;;;;;;5039104;28;20213;-89
2023/12/06 10:32:30;;;;;;;153.77;91.53;;;;;;;;;;5045079;28;20215;-89
2023/12/06 10:35:00;;;;;;;25.30;18.97;;;;;;;;;;5044854;28;20206;-90
2023/12/06 10:37:28;;;;;;;17.43;14.80;;;;;;;;;;5031840;28;20195;-90
2023/12/06 10:40:00;;;;;;;12.27;10.97;;;;;;;;;;5045474;28;20206;-89
2023/12/06 10:42:34;;;;;;;9.77;8.43;;;;;;;;;;5051436;27;20210;-90
2023/12/06 10:45:05;;;;;;;9.47;8.50;;;;;;;;;;5037504;28;20233;-89
2023/12/06 10:47:32;;;;;;;7.00;5.97;;;;;;;;;;5041283;28;20584;-89
2023/12/06 10:49:59;;;;;;;5.63;5.03;;;;;;;;;;5048497;28;20213;-90
2023/12/06 10:52:27;;;;;;;5.50;5.00;;;;;;;;;;5040643;28;20207;-88
2023/12/06 10:54:54;;;;;;;3.73;3.43;;;;;;;;;;5035691;28;20220;-90
2023/12/06 10:57:21;;;;;;;7.60;6.80;;;;;;;;;;5040841;27;20219;-90
2023/12/06 10:59:49;;;;;;;9.50;4.67;;;;;;;;;;5048826;28;20684;-90
2023/12/06 11:02:17;;;;;;;4.50;3.97;;;;;;;;;;5040019;28;20260;-90
2023/12/06 11:04:48;;;;;;;7.00;3.20;;;;;;;;;;5026423;28;20234;-90
2023/12/06 11:07:26;;;;;;;8.33;5.77;;;;;;;;;;5023886;28;20577;-90
2023/12/06 11:09:57;;;;;;;7.47;6.13;;;;;;;;;;5025393;28;20233;-90
2023/12/06 11:12:30;;;;;;;9.07;6.37;;;;;;;;;;5049723;28;20395;-90
2023/12/06 11:15:12;;;;;;;12.03;8.00;;;;;;;;;;5030900;28;20632;-90
2023/12/06 11:17:45;;;;;;;16.03;9.97;;;;;;;;;;5035330;28;20218;-90
2023/12/06 11:20:12;;;;;;;12.80;9.43;;;;;;;;;;5038991;28;20213;-90
2023/12/06 11:22:39;;;;;;;14.87;10.17;;;;;;;;;;5044028;28;20211;-90
2023/12/06 11:25:09;;;;;;;12.97;10.87;;;;;;;;;;5043252;28;20603;-90
2023/12/06 11:27:40;;;;;;;14.80;11.40;;;;;;;;;;5043727;28;20256;-90
2023/12/06 11:30:16;;;;;;;14.20;10.37;;;;;;;;;;5044260;28;20209;-90
2023/12/06 11:32:44;;;;;;;11.83;9.73;;;;;;;;;;5022294;28;21108;-89
2023/12/06 11:35:11;;;;;;;13.30;10.57;;;;;;;;;;5039450;28;20241;-89
2023/12/06 11:37:38;;;;;;;11.80;9.67;;;;;;;;;;5030379;28;20775;-90
2023/12/06 11:40:17;;;;;;;15.20;10.67;;;;;;;;;;5030815;28;20207;-90
2023/12/06 11:42:52;;;;;;;13.13;10.30;;;;;;;;;;5041490;28;20238;-90
2023/12/06 11:45:31;;;;;;;13.77;9.83;;;;;;;;;;5044410;28;20222;-90
2023/12/06 11:47:59;;;;;;;12.27;10.23;;;;;;;;;;5044550;28;20202;-90
2023/12/06 11:50:26;;;;;;;13.53;11.87;;;;;;;;;;5050083;28;20210;-90
2023/12/06 11:52:54;;;;;;;17.57;12.57;;;;;;;;;;5036485;28;20202;-89
2023/12/06 11:55:23;;;;;;;14.47;11.60;;;;;;;;;;5050601;28;20202;-90
2023/12/06 11:58:01;;;;;;;13.20;11.03;;;;;;;;;;5049289;28;20741;-90
2023/12/06 12:00:29;;;;;;;15.20;11.70;;;;;;;;;;5040415;28;20248;-90
2023/12/06 12:02:58;;;;;;;16.57;11.90;;;;;;;;;;5050291;28;20631;-90
2023/12/06 12:05:25;;;;;;;16.23;11.87;;;;;;;;;;5049995;28;20707;-90
2023/12/06 12:07:53;;;;;;;15.17;12.43;;;;;;;;;;5036605;28;20206;-90
2023/12/06 12:10:20;;;;;;;14.70;12.10;;;;;;;;;;5039039;28;20221;-90
2023/12/06 12:12:48;;;;;;;15.47;12.63;;;;;;;;;;5017072;28;20206;-90
2023/12/06 12:15:16;;;;;;;13.93;11.93;;;;;;;;;;5041547;28;20214;-90
2023/12/06 12:17:45;;;;;;;13.83;11.33;;;;;;;;;;5045124;28;20211;-90
2023/12/06 12:20:16;;;;;;;15.17;10.83;;;;;;;;;;5041920;28;20241;-90
2023/12/06 12:22:45;;;;;;;13.70;11.47;;;;;;;;;;5029346;28;20213;-90
2023/12/06 12:25:13;;;;;;;17.60;11.20;;;;;;;;;;5043017;28;20225;-90
2023/12/06 12:27:40;;;;;;;14.30;11.83;;;;;;;;;;5023561;28;20630;-90
2023/12/06 12:30:09;;;;;;;19.10;13.23;;;;;;;;;;5036063;27;20207;-90
2023/12/06 12:32:37;;;;;;;14.00;11.33;;;;;;;;;;5042272;28;20291;-90
2023/12/06 12:35:10;;;;;;;15.90;12.80;;;;;;;;;;5044394;27;20209;-90
2023/12/06 12:37:37;;;;;;;14.07;11.07;;;;;;;;;;5040879;28;20211;-90
2023/12/06 12:40:04;;;;;;;15.13;12.37;;;;;;;;;;5032306;28;20210;-90
2023/12/06 12:42:34;;;;;;;16.07;11.40;;;;;;;;;;5040084;28;20221;-90
2023/12/06 12:45:04;;;;;;;15.53;11.87;;;;;;;;;;5042603;28;20207;-90
2023/12/06 12:47:31;;;;;;;14.97;11.20;;;;;;;;;;5040271;28;20209;-90
2023/12/06 12:49:58;;;;;;;16.13;12.03;;;;;;;;;;5049693;28;20273;-90
2023/12/06 12:52:32;;;;;;;19.77;13.77;;;;;;;;;;5037957;28;20211;-90
2023/12/06 12:54:59;;;;;;;13.50;11.97;;;;;;;;;;5029593;28;20206;-90
2023/12/06 12:57:34;;;;;;;15.40;11.47;;;;;;;;;;5029619;28;20688;-89
2023/12/06 13:00:00;;;;;;;14.10;10.97;;;;;;;;;;5036981;28;20231;-90
2023/12/06 13:02:27;;;;;;;12.33;10.50;;;;;;;;;;5049528;28;20572;-90
2023/12/06 13:04:54;;;;;;;11.13;9.97;;;;;;;;;;5042208;28;20267;-90
2023/12/06 13:07:21;;;;;;;16.90;12.10;;;;;;;;;;5029423;28;20229;-90
2023/12/06 13:09:49;;;;;;;14.47;11.63;;;;;;;;;;5031080;28;20206;-90
2023/12/06 13:12:16;;;;;;;15.43;11.90;;;;;;;;;;5028719;28;20321;-90
2023/12/06 13:14:43;;;;;;;15.07;11.93;;;;;;;;;;5023117;28;20210;-90
2023/12/06 13:17:10;;;;;;;13.90;11.27;;;;;;;;;;5035497;28;20214;-90
2023/12/06 13:19:37;;;;;;;15.23;11.13;;;;;;;;;;5036808;28;20213;-90
2023/12/06 13:22:04;;;;;;;15.47;11.67;;;;;;;;;;5034607;28;20245;-91
2023/12/06 13:24:30;;;;;;;20.20;13.77;;;;;;;;;;5029150;28;20210;-90
2023/12/06 13:26:59;;;;;;;15.73;10.87;;;;;;;;;;5030733;28;20231;-90
2023/12/06 13:29:26;;;;;;;11.40;9.37;;;;;;;;;;5048623;28;20213;-91
2023/12/06 13:31:53;;;;;;;13.20;10.37;;;;;;;;;;5033867;28;20207;-90
2023/12/06 13:34:20;;;;;;;12.83;8.73;;;;;;;;;;5030556;28;20222;-90
2023/12/06 13:36:46;;;;;;;11.13;9.47;;;;;;;;;;5018989;27;20227;-90
2023/12/06 13:39:13;;;;;;;12.23;9.83;;;;;;;;;;5041948;28;20213;-90
2023/12/06 13:41:40;;;;;;;12.33;10.07;;;;;;;;;;5051790;28;20221;-90
2023/12/06 13:44:08;;;;;;;13.67;11.60;;;;;;;;;;5042674;28;20210;-90
2023/12/06 13:46:37;;;;;;;12.47;10.77;;;;;;;;;;5048607;28;20222;-90
2023/12/06 13:49:04;;;;;;;11.87;10.67;;;;;;;;;;5042377;28;20301;-90
2023/12/06 13:51:31;;;;;;;13.73;11.13;;;;;;;;;;5036189;28;20248;-90
2023/12/06 13:53:58;;;;;;;12.60;10.40;;;;;;;;;;5041550;27;20219;-90
2023/12/06 13:56:25;;;;;;;48.70;27.53;;;;;;;;;;5045599;28;20214;-91
2023/12/06 13:58:52;;;;;;;53.00;30.57;;;;;;;;;;5043703;28;20604;-90
2023/12/06 14:01:20;;;;;;;36.37;22.10;;;;;;;;;;5047310;28;20215;-90
2023/12/06 14:03:47;;;;;;;22.27;15.67;;;;;;;;;;5044675;28;20218;-90
2023/12/06 14:06:14;;;;;;;20.07;15.07;;;;;;;;;;5046452;28;20226;-91
2023/12/06 14:08:40;;;;;;;16.50;13.23;;;;;;;;;;5020663;28;20219;-90
2023/12/06 14:11:10;;;;;;;17.63;13.23;;;;;;;;;;5048500;28;20625;-89
2023/12/06 14:13:37;;;;;;;18.53;12.77;;;;;;;;;;5051994;28;20630;-90
2023/12/06 14:16:04;;;;;;;18.70;13.40;;;;;;;;;;5037833;28;20198;-90
2023/12/06 14:18:32;;;;;;;18.57;13.40;;;;;;;;;;5040723;28;20207;-90
2023/12/06 14:21:01;;;;;;;17.17;13.57;;;;;;;;;;5044942;28;20685;-90
2023/12/06 14:23:28;;;;;;;17.30;14.87;;;;;;;;;;5043760;28;20212;-90
2023/12/06 14:25:55;;;;;;;18.07;13.60;;;;;;;;;;5051581;28;20230;-91
2023/12/06 14:28:21;;;;;;;17.23;13.30;;;;;;;;;;5040160;28;20214;-90
2023/12/06 14:30:48;;;;;;;16.40;12.53;;;;;;;;;;5036427;28;20202;-90